Česky Dansk Deutsch English Español Suomi Français Magyar Italiano Nederlands norsk Polski Português svenska Türkçe

 

Het Weer

Akrotiri (Cyprus)

16:50, 30 juli 2016 (GMT)

NWNNE
WE
SWSSE
Home            
Akrotiri Paphos Airport Larnaca Airport Athalassa Ercan Beyrouth Aeroport Sde-Haifa Haifa Lattakia Galilee / Pina Antalya Tel Aviv / Sde-Dov Airport Ben-Gurion International Airport Adana / Sakirpasa Adana / Incirlik Irbid Damascus Int. Airport Iskenderun Jerusalem Airport Port Said Konya Mafraq El Arish Amman Airport

Om een weerknop op uw website of weblog te plaatsen, copieer onderstaande code en plak die in uw pagina. In het eerste vakje staat HTML-code, in het tweede vakje UBB-code.


Add to Google

Details

Wind speed:4 bf, 14 kn, 7.2 m/s, 16.1 miles/h, 25.9 km/h
Wind direction:W, 260°
Visibility:Greater than 10000 m, 10 km, 32800 ft, 6.2 miles
Clouds:CAVOC
Temperature:27°C, 81°F
Gefühlte Temperatur:31°C, 87°F
Dew-point:24°C, 75°F
Atmospheric pressure:1003 hPa, 752.3 mmHg, 29.62 inHg, 0.990 atm
Relative humidity:83.7 %
METAR:LCRA 301650Z 26014KT CAVOK 27/24 Q1003 NOSIG

Snelkoppelingen

Actuele weersinformatie van de hele wereld. Voeg locaties toe met het plus (+) symbool. Deze snelkoppelingen kunnen worden toegevoegd aan Google.

Lid van de Technetium groep

website free tracking
StatCounter NetStat W3C Validator

05-10-2022 08:27:33
astro.technetium.be money.technetium.be phote.technetium.be tafeltennistafel.technetium.be www.ligfiets.net